sensor_id;sensor_type;location;lat;lon;timestamp;P1;durP1;ratioP1;P2;durP2;ratioP2
363;SDS011;173;48.718;9.274;2022-07-06T07:39:24;4.70;;;4.30;;
363;SDS011;173;48.718;9.274;2022-07-06T07:41:56;3.70;;;3.40;;
363;SDS011;173;48.718;9.274;2022-07-06T07:44:28;3.70;;;3.40;;
363;SDS011;173;48.718;9.274;2022-07-06T07:47:00;3.40;;;3.00;;
363;SDS011;173;48.718;9.274;2022-07-06T07:49:33;3.70;;;3.40;;
363;SDS011;173;48.718;9.274;2022-07-06T07:54:35;3.40;;;3.20;;
363;SDS011;173;48.718;9.274;2022-07-06T07:57:08;3.70;;;3.40;;
363;SDS011;173;48.718;9.274;2022-07-06T07:59:40;3.60;;;3.40;;
363;SDS011;173;48.718;9.274;2022-07-06T08:02:11;3.20;;;2.90;;
363;SDS011;173;48.718;9.274;2022-07-06T08:04:52;3.95;;;3.40;;
363;SDS011;173;48.718;9.274;2022-07-06T08:07:24;3.20;;;3.00;;
363;SDS011;173;48.718;9.274;2022-07-06T08:09:56;3.85;;;3.45;;
363;SDS011;173;48.718;9.274;2022-07-06T08:12:29;4.80;;;3.10;;
363;SDS011;173;48.718;9.274;2022-07-06T08:15:01;3.70;;;3.30;;
363;SDS011;173;48.718;9.274;2022-07-06T08:17:34;3.60;;;3.30;;
363;SDS011;173;48.718;9.274;2022-07-06T08:20:07;6.95;;;4.00;;
363;SDS011;173;48.718;9.274;2022-07-06T08:22:41;3.37;;;3.07;;
363;SDS011;173;48.718;9.274;2022-07-06T08:25:14;4.20;;;3.80;;
363;SDS011;173;48.718;9.274;2022-07-06T08:27:44;4.20;;;3.35;;
363;SDS011;173;48.718;9.274;2022-07-06T08:30:16;3.90;;;3.50;;
363;SDS011;173;48.718;9.274;2022-07-06T08:32:48;3.60;;;3.30;;
363;SDS011;173;48.718;9.274;2022-07-06T08:35:22;5.70;;;3.70;;
363;SDS011;173;48.718;9.274;2022-07-06T08:37:55;5.20;;;4.60;;
363;SDS011;173;48.718;9.274;2022-07-06T08:40:37;4.70;;;4.30;;
363;SDS011;173;48.718;9.274;2022-07-06T08:43:04;3.40;;;3.10;;
363;SDS011;173;48.718;9.274;2022-07-06T08:45:39;4.00;;;3.70;;
363;SDS011;173;48.718;9.274;2022-07-06T08:48:12;3.83;;;3.63;;
363;SDS011;173;48.718;9.274;2022-07-06T08:50:44;5.45;;;3.35;;
363;SDS011;173;48.718;9.274;2022-07-06T08:53:18;4.45;;;3.30;;
363;SDS011;173;48.718;9.274;2022-07-06T08:55:51;3.65;;;3.35;;
363;SDS011;173;48.718;9.274;2022-07-06T08:58:24;5.90;;;3.20;;
363;SDS011;173;48.718;9.274;2022-07-06T09:00:55;4.20;;;3.85;;
363;SDS011;173;48.718;9.274;2022-07-06T09:03:26;5.30;;;3.70;;
363;SDS011;173;48.718;9.274;2022-07-06T09:06:00;3.20;;;3.00;;
363;SDS011;173;48.718;9.274;2022-07-06T09:08:33;3.40;;;3.20;;
363;SDS011;173;48.718;9.274;2022-07-06T09:11:05;3.10;;;2.90;;
363;SDS011;173;48.718;9.274;2022-07-06T09:13:37;3.90;;;3.60;;
363;SDS011;173;48.718;9.274;2022-07-06T09:16:10;3.80;;;3.20;;
363;SDS011;173;48.718;9.274;2022-07-06T09:18:44;3.70;;;3.40;;
363;SDS011;173;48.718;9.274;2022-07-06T09:21:27;5.95;;;4.70;;
363;SDS011;173;48.718;9.274;2022-07-06T09:24:05;3.70;;;3.40;;
363;SDS011;173;48.718;9.274;2022-07-06T09:26:39;3.75;;;3.45;;
363;SDS011;173;48.718;9.274;2022-07-06T09:29:10;3.70;;;3.40;;
363;SDS011;173;48.718;9.274;2022-07-06T09:31:42;3.20;;;3.00;;
363;SDS011;173;48.718;9.274;2022-07-06T09:34:24;5.30;;;4.90;;
363;SDS011;173;48.718;9.274;2022-07-06T09:37:13;4.50;;;4.10;;
363;SDS011;173;48.718;9.274;2022-07-06T09:42:26;3.40;;;3.15;;
363;SDS011;173;48.718;9.274;2022-07-06T09:44:58;3.00;;;2.80;;
363;SDS011;173;48.718;9.274;2022-07-06T09:47:32;3.70;;;3.40;;
363;SDS011;173;48.718;9.274;2022-07-06T09:50:06;3.80;;;3.50;;
363;SDS011;173;48.718;9.274;2022-07-06T09:52:38;3.20;;;3.00;;
363;SDS011;173;48.718;9.274;2022-07-06T09:55:15;4.20;;;3.40;;
363;SDS011;173;48.718;9.274;2022-07-06T09:57:54;2.75;;;2.55;;
363;SDS011;173;48.718;9.274;2022-07-06T10:00:26;3.90;;;3.25;;
363;SDS011;173;48.718;9.274;2022-07-06T10:02:58;2.80;;;2.60;;
363;SDS011;173;48.718;9.274;2022-07-06T10:05:31;4.45;;;3.15;;
363;SDS011;173;48.718;9.274;2022-07-06T10:08:06;2.50;;;2.30;;
363;SDS011;173;48.718;9.274;2022-07-06T10:10:39;3.50;;;3.20;;
363;SDS011;173;48.718;9.274;2022-07-06T10:13:14;3.40;;;3.10;;
363;SDS011;173;48.718;9.274;2022-07-06T10:15:49;3.40;;;3.10;;
363;SDS011;173;48.718;9.274;2022-07-06T10:18:23;3.40;;;3.10;;
363;SDS011;173;48.718;9.274;2022-07-06T10:20:56;3.70;;;2.60;;
363;SDS011;173;48.718;9.274;2022-07-06T10:23:29;3.50;;;2.90;;
363;SDS011;173;48.718;9.274;2022-07-06T10:26:00;3.80;;;3.40;;
363;SDS011;173;48.718;9.274;2022-07-06T10:28:34;2.90;;;2.60;;
363;SDS011;173;48.718;9.274;2022-07-06T10:39:34;3.00;;;2.80;;
363;SDS011;173;48.718;9.274;2022-07-06T10:42:40;3.10;;;2.80;;
363;SDS011;173;48.718;9.274;2022-07-06T10:48:19;3.00;;;2.80;;
363;SDS011;173;48.718;9.274;2022-07-06T10:50:54;2.80;;;2.60;;
363;SDS011;173;48.718;9.274;2022-07-06T10:53:27;3.00;;;2.80;;
363;SDS011;173;48.718;9.274;2022-07-06T10:56:04;2.50;;;2.30;;
363;SDS011;173;48.718;9.274;2022-07-06T11:01:19;3.50;;;3.00;;
363;SDS011;173;48.718;9.274;2022-07-06T11:06:36;3.25;;;2.95;;
363;SDS011;173;48.718;9.274;2022-07-06T11:09:10;3.00;;;2.40;;
363;SDS011;173;48.718;9.274;2022-07-06T11:11:44;3.30;;;2.60;;
363;SDS011;173;48.718;9.274;2022-07-06T11:14:16;3.30;;;2.30;;
363;SDS011;173;48.718;9.274;2022-07-06T11:19:31;2.75;;;2.55;;
363;SDS011;173;48.718;9.274;2022-07-06T11:22:07;2.60;;;2.40;;
363;SDS011;173;48.718;9.274;2022-07-06T11:24:40;2.70;;;2.50;;
363;SDS011;173;48.718;9.274;2022-07-06T11:27:13;2.80;;;2.40;;
363;SDS011;173;48.718;9.274;2022-07-06T11:29:45;2.80;;;2.60;;
363;SDS011;173;48.718;9.274;2022-07-06T11:32:20;2.60;;;2.40;;
363;SDS011;173;48.718;9.274;2022-07-06T11:34:57;3.20;;;2.20;;
363;SDS011;173;48.718;9.274;2022-07-06T11:37:29;4.40;;;3.00;;
363;SDS011;173;48.718;9.274;2022-07-06T11:40:05;3.45;;;3.15;;
363;SDS011;173;48.718;9.274;2022-07-06T11:42:38;2.80;;;2.60;;
363;SDS011;173;48.718;9.274;2022-07-06T11:45:12;5.00;;;3.90;;
363;SDS011;173;48.718;9.274;2022-07-06T11:47:47;3.80;;;3.30;;
363;SDS011;173;48.718;9.274;2022-07-06T11:50:20;3.60;;;3.10;;
363;SDS011;173;48.718;9.274;2022-07-06T11:53:28;3.10;;;2.80;;
363;SDS011;173;48.718;9.274;2022-07-06T11:56:04;3.50;;;2.75;;
363;SDS011;173;48.718;9.274;2022-07-06T11:58:37;3.10;;;2.80;;
363;SDS011;173;48.718;9.274;2022-07-06T12:01:12;4.80;;;2.80;;
363;SDS011;173;48.718;9.274;2022-07-06T12:03:45;3.10;;;2.90;;
363;SDS011;173;48.718;9.274;2022-07-06T12:06:18;3.90;;;3.45;;
363;SDS011;173;48.718;9.274;2022-07-06T12:08:53;2.60;;;2.50;;
363;SDS011;173;48.718;9.274;2022-07-06T12:11:30;2.90;;;2.70;;
363;SDS011;173;48.718;9.274;2022-07-06T12:14:17;3.85;;;2.25;;
363;SDS011;173;48.718;9.274;2022-07-06T12:16:49;2.60;;;2.40;;
363;SDS011;173;48.718;9.274;2022-07-06T12:19:22;6.70;;;3.30;;
363;SDS011;173;48.718;9.274;2022-07-06T12:21:54;3.95;;;2.90;;
363;SDS011;173;48.718;9.274;2022-07-06T12:24:28;3.40;;;3.20;;
363;SDS011;173;48.718;9.274;2022-07-06T12:27:14;3.50;;;3.00;;
363;SDS011;173;48.718;9.274;2022-07-06T12:29:48;2.40;;;2.30;;
363;SDS011;173;48.718;9.274;2022-07-06T12:32:21;2.90;;;2.70;;
363;SDS011;173;48.718;9.274;2022-07-06T12:35:06;3.30;;;3.00;;
363;SDS011;173;48.718;9.274;2022-07-06T12:37:53;3.10;;;2.90;;
363;SDS011;173;48.718;9.274;2022-07-06T12:40:25;3.30;;;3.00;;
363;SDS011;173;48.718;9.274;2022-07-06T12:42:58;3.55;;;3.00;;
363;SDS011;173;48.718;9.274;2022-07-06T12:45:31;3.90;;;3.35;;
363;SDS011;173;48.718;9.274;2022-07-06T12:48:03;3.40;;;2.90;;
363;SDS011;173;48.718;9.274;2022-07-06T12:50:37;4.50;;;2.70;;
363;SDS011;173;48.718;9.274;2022-07-06T12:53:26;7.70;;;2.70;;
363;SDS011;173;48.718;9.274;2022-07-06T12:58:39;4.00;;;3.70;;
363;SDS011;173;48.718;9.274;2022-07-06T13:01:26;3.45;;;3.15;;
363;SDS011;173;48.718;9.274;2022-07-06T13:03:58;3.15;;;2.90;;
363;SDS011;173;48.718;9.274;2022-07-06T13:06:33;2.95;;;2.55;;
363;SDS011;173;48.718;9.274;2022-07-06T13:09:05;3.10;;;2.90;;
363;SDS011;173;48.718;9.274;2022-07-06T13:11:39;3.10;;;2.80;;
363;SDS011;173;48.718;9.274;2022-07-06T13:14:10;5.05;;;2.55;;
363;SDS011;173;48.718;9.274;2022-07-06T13:16:44;3.00;;;2.80;;
363;SDS011;173;48.718;9.274;2022-07-06T13:19:17;3.80;;;3.00;;
363;SDS011;173;48.718;9.274;2022-07-06T13:21:49;3.75;;;3.45;;
363;SDS011;173;48.718;9.274;2022-07-06T13:24:21;2.50;;;2.30;;
363;SDS011;173;48.718;9.274;2022-07-06T13:26:55;3.10;;;2.60;;
363;SDS011;173;48.718;9.274;2022-07-06T13:29:27;4.65;;;2.85;;
363;SDS011;173;48.718;9.274;2022-07-06T13:33:15;5.10;;;2.80;;
363;SDS011;173;48.718;9.274;2022-07-06T13:35:47;2.90;;;2.70;;
363;SDS011;173;48.718;9.274;2022-07-06T13:38:20;3.20;;;2.90;;
363;SDS011;173;48.718;9.274;2022-07-06T13:40:50;3.95;;;2.70;;
363;SDS011;173;48.718;9.274;2022-07-06T13:43:23;3.15;;;2.75;;
363;SDS011;173;48.718;9.274;2022-07-06T13:45:56;3.90;;;3.10;;
363;SDS011;173;48.718;9.274;2022-07-06T13:48:26;3.20;;;2.90;;
363;SDS011;173;48.718;9.274;2022-07-06T13:50:59;2.90;;;2.65;;
363;SDS011;173;48.718;9.274;2022-07-06T13:53:31;2.85;;;2.60;;
363;SDS011;173;48.718;9.274;2022-07-06T13:56:03;2.70;;;2.60;;
363;SDS011;173;48.718;9.274;2022-07-06T14:00:26;3.80;;;3.10;;
363;SDS011;173;48.718;9.274;2022-07-06T14:02:58;3.40;;;3.10;;
363;SDS011;173;48.718;9.274;2022-07-06T14:05:30;3.45;;;2.90;;
363;SDS011;173;48.718;9.274;2022-07-06T14:08:03;2.40;;;2.30;;
363;SDS011;173;48.718;9.274;2022-07-06T14:10:35;4.30;;;2.30;;
363;SDS011;173;48.718;9.274;2022-07-06T14:13:07;3.00;;;2.50;;
363;SDS011;173;48.718;9.274;2022-07-06T14:15:39;2.80;;;2.60;;
363;SDS011;173;48.718;9.274;2022-07-06T14:18:11;3.40;;;3.20;;
363;SDS011;173;48.718;9.274;2022-07-06T14:20:45;3.60;;;3.00;;
363;SDS011;173;48.718;9.274;2022-07-06T14:23:18;2.85;;;2.65;;
363;SDS011;173;48.718;9.274;2022-07-06T14:25:51;2.90;;;2.65;;
363;SDS011;173;48.718;9.274;2022-07-06T14:28:23;3.75;;;3.20;;
363;SDS011;173;48.718;9.274;2022-07-06T14:30:54;3.00;;;2.30;;
363;SDS011;173;48.718;9.274;2022-07-06T14:33:26;2.80;;;2.60;;
363;SDS011;173;48.718;9.274;2022-07-06T14:39:35;2.70;;;2.50;;
363;SDS011;173;48.718;9.274;2022-07-06T14:42:05;3.85;;;2.90;;
363;SDS011;173;48.718;9.274;2022-07-06T14:44:37;4.20;;;2.70;;
363;SDS011;173;48.718;9.274;2022-07-06T14:47:09;2.70;;;2.60;;
363;SDS011;173;48.718;9.274;2022-07-06T14:49:41;3.30;;;2.60;;
363;SDS011;173;48.718;9.274;2022-07-06T14:52:13;5.60;;;2.40;;
363;SDS011;173;48.718;9.274;2022-07-06T14:54:45;3.10;;;2.90;;
363;SDS011;173;48.718;9.274;2022-07-06T14:57:17;3.35;;;3.05;;
363;SDS011;173;48.718;9.274;2022-07-06T14:59:49;3.35;;;2.70;;
363;SDS011;173;48.718;9.274;2022-07-06T15:02:21;2.30;;;2.10;;
363;SDS011;173;48.718;9.274;2022-07-06T15:04:53;2.20;;;2.00;;
363;SDS011;173;48.718;9.274;2022-07-06T15:07:25;2.30;;;2.00;;
363;SDS011;173;48.718;9.274;2022-07-06T15:09:57;2.00;;;1.90;;
363;SDS011;173;48.718;9.274;2022-07-06T15:12:29;2.10;;;2.00;;
363;SDS011;173;48.718;9.274;2022-07-06T15:15:01;2.70;;;2.50;;
363;SDS011;173;48.718;9.274;2022-07-06T15:17:35;1.95;;;1.85;;
363;SDS011;173;48.718;9.274;2022-07-06T15:20:07;2.50;;;2.35;;
363;SDS011;173;48.718;9.274;2022-07-06T15:22:41;3.05;;;1.90;;
363;SDS011;173;48.718;9.274;2022-07-06T15:25:14;3.15;;;2.00;;
363;SDS011;173;48.718;9.274;2022-07-06T15:27:46;2.60;;;2.40;;
363;SDS011;173;48.718;9.274;2022-07-06T15:32:02;2.20;;;2.00;;
363;SDS011;173;48.718;9.274;2022-07-06T15:34:36;3.17;;;2.10;;
363;SDS011;173;48.718;9.274;2022-07-06T15:37:08;2.00;;;1.90;;
363;SDS011;173;48.718;9.274;2022-07-06T15:39:39;2.05;;;1.95;;
363;SDS011;173;48.718;9.274;2022-07-06T15:42:09;2.10;;;2.00;;
363;SDS011;173;48.718;9.274;2022-07-06T15:44:41;2.00;;;1.80;;
363;SDS011;173;48.718;9.274;2022-07-06T15:47:14;2.10;;;2.00;;
363;SDS011;173;48.718;9.274;2022-07-06T15:49:49;2.90;;;2.00;;
363;SDS011;173;48.718;9.274;2022-07-06T15:52:21;3.70;;;3.40;;
363;SDS011;173;48.718;9.274;2022-07-06T15:54:53;2.60;;;2.30;;
363;SDS011;173;48.718;9.274;2022-07-06T15:57:24;2.30;;;2.10;;
363;SDS011;173;48.718;9.274;2022-07-06T15:59:56;2.90;;;2.20;;
363;SDS011;173;48.718;9.274;2022-07-06T16:02:28;2.10;;;1.90;;
363;SDS011;173;48.718;9.274;2022-07-06T16:05:00;1.97;;;1.87;;
363;SDS011;173;48.718;9.274;2022-07-06T16:07:33;2.30;;;2.20;;
363;SDS011;173;48.718;9.274;2022-07-06T16:10:05;2.10;;;1.90;;
363;SDS011;173;48.718;9.274;2022-07-06T16:12:38;2.10;;;2.00;;
363;SDS011;173;48.718;9.274;2022-07-06T16:15:08;3.20;;;2.30;;
363;SDS011;173;48.718;9.274;2022-07-06T16:17:39;5.40;;;2.10;;
363;SDS011;173;48.718;9.274;2022-07-06T16:20:11;2.00;;;1.80;;
363;SDS011;173;48.718;9.274;2022-07-06T16:22:44;2.95;;;1.90;;
363;SDS011;173;48.718;9.274;2022-07-06T16:25:15;2.30;;;2.20;;
363;SDS011;173;48.718;9.274;2022-07-06T16:27:47;2.60;;;2.40;;
363;SDS011;173;48.718;9.274;2022-07-06T16:30:20;2.30;;;2.20;;
363;SDS011;173;48.718;9.274;2022-07-06T16:32:53;2.90;;;2.15;;
363;SDS011;173;48.718;9.274;2022-07-06T16:35:24;1.90;;;1.80;;
363;SDS011;173;48.718;9.274;2022-07-06T16:37:56;2.10;;;1.95;;
363;SDS011;173;48.718;9.274;2022-07-06T16:40:28;1.90;;;1.80;;
363;SDS011;173;48.718;9.274;2022-07-06T16:43:00;4.10;;;2.00;;
363;SDS011;173;48.718;9.274;2022-07-06T16:45:32;3.00;;;2.60;;
363;SDS011;173;48.718;9.274;2022-07-06T16:50:15;2.00;;;1.90;;
363;SDS011;173;48.718;9.274;2022-07-06T16:52:49;1.80;;;1.70;;
363;SDS011;173;48.718;9.274;2022-07-06T16:55:21;2.60;;;1.60;;
363;SDS011;173;48.718;9.274;2022-07-06T16:57:55;1.85;;;1.75;;
363;SDS011;173;48.718;9.274;2022-07-06T17:00:27;1.90;;;1.70;;
363;SDS011;173;48.718;9.274;2022-07-06T17:02:59;4.20;;;2.20;;
363;SDS011;173;48.718;9.274;2022-07-06T17:05:31;2.10;;;1.90;;
363;SDS011;173;48.718;9.274;2022-07-06T17:08:04;2.50;;;1.90;;
363;SDS011;173;48.718;9.274;2022-07-06T17:10:36;2.50;;;2.30;;
363;SDS011;173;48.718;9.274;2022-07-06T17:13:09;2.75;;;2.55;;
363;SDS011;173;48.718;9.274;2022-07-06T17:15:41;3.40;;;3.20;;
363;SDS011;173;48.718;9.274;2022-07-06T17:18:13;3.10;;;2.80;;
363;SDS011;173;48.718;9.274;2022-07-06T17:20:46;1.80;;;1.70;;
363;SDS011;173;48.718;9.274;2022-07-06T17:23:18;2.20;;;2.00;;
363;SDS011;173;48.718;9.274;2022-07-06T17:25:50;2.40;;;2.10;;
363;SDS011;173;48.718;9.274;2022-07-06T17:28:23;2.30;;;2.00;;
363;SDS011;173;48.718;9.274;2022-07-06T17:30:55;1.80;;;1.70;;
363;SDS011;173;48.718;9.274;2022-07-06T17:33:28;2.85;;;2.15;;
363;SDS011;173;48.718;9.274;2022-07-06T17:36:00;1.80;;;1.70;;
363;SDS011;173;48.718;9.274;2022-07-06T17:38:32;2.50;;;1.70;;
363;SDS011;173;48.718;9.274;2022-07-06T17:41:04;1.90;;;1.80;;
363;SDS011;173;48.718;9.274;2022-07-06T17:43:36;2.35;;;1.65;;
363;SDS011;173;48.718;9.274;2022-07-06T17:46:09;3.60;;;1.90;;
363;SDS011;173;48.718;9.274;2022-07-06T17:48:41;6.30;;;1.80;;
363;SDS011;173;48.718;9.274;2022-07-06T17:53:43;2.50;;;1.90;;
363;SDS011;173;48.718;9.274;2022-07-06T17:56:16;2.55;;;2.10;;
363;SDS011;173;48.718;9.274;2022-07-06T17:58:47;2.70;;;2.50;;
363;SDS011;173;48.718;9.274;2022-07-06T18:01:18;4.25;;;2.00;;
363;SDS011;173;48.718;9.274;2022-07-06T18:03:50;2.50;;;2.30;;
363;SDS011;173;48.718;9.274;2022-07-06T18:06:22;3.60;;;2.30;;
363;SDS011;173;48.718;9.274;2022-07-06T18:08:55;3.00;;;2.70;;
363;SDS011;173;48.718;9.274;2022-07-06T18:11:27;5.35;;;2.75;;
363;SDS011;173;48.718;9.274;2022-07-06T18:13:59;3.70;;;2.20;;
363;SDS011;173;48.718;9.274;2022-07-06T18:16:31;3.25;;;2.40;;
363;SDS011;173;48.718;9.274;2022-07-06T18:19:05;2.50;;;2.30;;
363;SDS011;173;48.718;9.274;2022-07-06T18:21:37;2.85;;;2.10;;
363;SDS011;173;48.718;9.274;2022-07-06T18:24:11;3.40;;;2.40;;
363;SDS011;173;48.718;9.274;2022-07-06T18:26:43;2.40;;;2.20;;
363;SDS011;173;48.718;9.274;2022-07-06T18:29:16;2.50;;;2.30;;
363;SDS011;173;48.718;9.274;2022-07-06T18:31:48;2.00;;;1.90;;
363;SDS011;173;48.718;9.274;2022-07-06T18:34:20;2.30;;;2.10;;
363;SDS011;173;48.718;9.274;2022-07-06T18:39:23;3.30;;;2.00;;
363;SDS011;173;48.718;9.274;2022-07-06T18:41:54;7.30;;;2.05;;
363;SDS011;173;48.718;9.274;2022-07-06T18:44:24;3.25;;;2.30;;
363;SDS011;173;48.718;9.274;2022-07-06T18:46:57;2.20;;;2.00;;
363;SDS011;173;48.718;9.274;2022-07-06T18:49:29;2.40;;;2.20;;
363;SDS011;173;48.718;9.274;2022-07-06T18:52:00;2.80;;;2.20;;
363;SDS011;173;48.718;9.274;2022-07-06T18:54:31;2.35;;;2.20;;
363;SDS011;173;48.718;9.274;2022-07-06T19:00:23;1.80;;;1.70;;
363;SDS011;173;48.718;9.274;2022-07-06T19:02:56;9.00;;;2.50;;
363;SDS011;173;48.718;9.274;2022-07-06T19:05:26;2.20;;;2.00;;
363;SDS011;173;48.718;9.274;2022-07-06T19:07:58;2.30;;;2.10;;
363;SDS011;173;48.718;9.274;2022-07-06T19:10:30;2.40;;;2.20;;
363;SDS011;173;48.718;9.274;2022-07-06T19:13:03;2.55;;;1.95;;
363;SDS011;173;48.718;9.274;2022-07-06T19:15:34;2.10;;;1.90;;
363;SDS011;173;48.718;9.274;2022-07-06T19:18:04;3.50;;;2.30;;
363;SDS011;173;48.718;9.274;2022-07-06T19:20:38;1.95;;;1.55;;
363;SDS011;173;48.718;9.274;2022-07-06T19:23:11;2.50;;;2.17;;
363;SDS011;173;48.718;9.274;2022-07-06T19:25:45;1.90;;;1.80;;
363;SDS011;173;48.718;9.274;2022-07-06T19:28:17;2.20;;;1.97;;
363;SDS011;173;48.718;9.274;2022-07-06T19:30:51;2.30;;;2.10;;
363;SDS011;173;48.718;9.274;2022-07-06T19:33:23;2.35;;;1.90;;
363;SDS011;173;48.718;9.274;2022-07-06T19:35:55;1.85;;;1.55;;
363;SDS011;173;48.718;9.274;2022-07-06T19:38:28;2.00;;;1.80;;
363;SDS011;173;48.718;9.274;2022-07-06T19:41:00;1.70;;;1.50;;
363;SDS011;173;48.718;9.274;2022-07-06T19:43:32;2.00;;;1.80;;
363;SDS011;173;48.718;9.274;2022-07-06T19:46:04;2.35;;;1.70;;
363;SDS011;173;48.718;9.274;2022-07-06T19:48:36;2.15;;;2.05;;
363;SDS011;173;48.718;9.274;2022-07-06T19:51:09;1.50;;;1.40;;
363;SDS011;173;48.718;9.274;2022-07-06T19:53:40;2.60;;;1.60;;
363;SDS011;173;48.718;9.274;2022-07-06T19:56:12;4.20;;;1.70;;
363;SDS011;173;48.718;9.274;2022-07-06T19:58:45;2.50;;;1.90;;
363;SDS011;173;48.718;9.274;2022-07-06T20:01:18;1.80;;;1.70;;
363;SDS011;173;48.718;9.274;2022-07-06T20:03:50;4.10;;;2.25;;
363;SDS011;173;48.718;9.274;2022-07-06T20:06:23;3.40;;;1.80;;
363;SDS011;173;48.718;9.274;2022-07-06T20:08:57;2.30;;;2.10;;
363;SDS011;173;48.718;9.274;2022-07-06T20:11:29;2.00;;;1.90;;
363;SDS011;173;48.718;9.274;2022-07-06T20:14:02;1.60;;;1.50;;
363;SDS011;173;48.718;9.274;2022-07-06T20:16:34;1.70;;;1.60;;
363;SDS011;173;48.718;9.274;2022-07-06T20:19:07;1.70;;;1.60;;
363;SDS011;173;48.718;9.274;2022-07-06T20:21:41;2.20;;;1.40;;
363;SDS011;173;48.718;9.274;2022-07-06T20:24:13;3.50;;;1.80;;
363;SDS011;173;48.718;9.274;2022-07-06T20:26:45;2.70;;;1.85;;
363;SDS011;173;48.718;9.274;2022-07-06T20:29:17;3.70;;;1.80;;
363;SDS011;173;48.718;9.274;2022-07-06T20:31:50;1.80;;;1.70;;
363;SDS011;173;48.718;9.274;2022-07-06T20:34:21;2.20;;;1.80;;
363;SDS011;173;48.718;9.274;2022-07-06T20:45:29;1.70;;;1.60;;
363;SDS011;173;48.718;9.274;2022-07-06T20:48:01;2.20;;;1.60;;
363;SDS011;173;48.718;9.274;2022-07-06T20:50:33;1.60;;;1.50;;
363;SDS011;173;48.718;9.274;2022-07-06T20:53:06;3.50;;;1.80;;
363;SDS011;173;48.718;9.274;2022-07-06T20:55:38;2.10;;;1.85;;
363;SDS011;173;48.718;9.274;2022-07-06T20:58:10;1.95;;;1.85;;
363;SDS011;173;48.718;9.274;2022-07-06T21:00:42;1.80;;;1.70;;
363;SDS011;173;48.718;9.274;2022-07-06T21:03:15;1.90;;;1.50;;
363;SDS011;173;48.718;9.274;2022-07-06T21:05:47;2.00;;;1.50;;
363;SDS011;173;48.718;9.274;2022-07-06T21:08:19;1.40;;;1.30;;
363;SDS011;173;48.718;9.274;2022-07-06T21:10:52;1.60;;;1.50;;
363;SDS011;173;48.718;9.274;2022-07-06T21:13:24;1.60;;;1.50;;
363;SDS011;173;48.718;9.274;2022-07-06T21:15:56;3.20;;;1.70;;
363;SDS011;173;48.718;9.274;2022-07-06T21:20:59;1.60;;;1.50;;
363;SDS011;173;48.718;9.274;2022-07-06T21:23:32;1.80;;;1.60;;
363;SDS011;173;48.718;9.274;2022-07-06T21:26:06;1.30;;;1.20;;
363;SDS011;173;48.718;9.274;2022-07-06T21:28:38;2.10;;;1.30;;
363;SDS011;173;48.718;9.274;2022-07-06T21:31:10;2.50;;;1.35;;
363;SDS011;173;48.718;9.274;2022-07-06T21:33:42;1.60;;;1.40;;
363;SDS011;173;48.718;9.274;2022-07-06T21:38:45;1.60;;;1.50;;
363;SDS011;173;48.718;9.274;2022-07-06T21:41:17;2.10;;;1.60;;
363;SDS011;173;48.718;9.274;2022-07-06T21:43:49;3.05;;;1.30;;
363;SDS011;173;48.718;9.274;2022-07-06T21:46:21;1.57;;;1.47;;
363;SDS011;173;48.718;9.274;2022-07-06T21:48:53;1.50;;;1.30;;
363;SDS011;173;48.718;9.274;2022-07-06T21:51:25;3.05;;;1.50;;
363;SDS011;173;48.718;9.274;2022-07-06T21:53:57;2.20;;;1.60;;
363;SDS011;173;48.718;9.274;2022-07-06T21:56:29;1.50;;;1.30;;
363;SDS011;173;48.718;9.274;2022-07-06T21:59:01;1.90;;;1.30;;
363;SDS011;173;48.718;9.274;2022-07-06T22:01:33;1.55;;;1.30;;
363;SDS011;173;48.718;9.274;2022-07-06T22:04:08;2.70;;;1.80;;
363;SDS011;173;48.718;9.274;2022-07-06T22:06:40;4.40;;;1.60;;
363;SDS011;173;48.718;9.274;2022-07-06T22:09:12;5.20;;;1.70;;
363;SDS011;173;48.718;9.274;2022-07-06T22:14:02;1.40;;;1.30;;
363;SDS011;173;48.718;9.274;2022-07-06T22:16:34;1.40;;;1.30;;
363;SDS011;173;48.718;9.274;2022-07-06T22:19:10;2.80;;;1.50;;
363;SDS011;173;48.718;9.274;2022-07-06T22:21:42;3.10;;;1.60;;
363;SDS011;173;48.718;9.274;2022-07-06T22:26:44;2.25;;;1.55;;
363;SDS011;173;48.718;9.274;2022-07-06T22:29:16;2.40;;;1.40;;
363;SDS011;173;48.718;9.274;2022-07-06T22:31:48;1.25;;;1.15;;
363;SDS011;173;48.718;9.274;2022-07-06T22:34:20;1.40;;;1.30;;
363;SDS011;173;48.718;9.274;2022-07-06T22:36:53;2.70;;;1.55;;
363;SDS011;173;48.718;9.274;2022-07-06T22:39:26;1.73;;;1.63;;
363;SDS011;173;48.718;9.274;2022-07-06T22:41:58;1.75;;;1.50;;
363;SDS011;173;48.718;9.274;2022-07-06T22:44:30;2.30;;;1.60;;
363;SDS011;173;48.718;9.274;2022-07-06T22:47:03;3.65;;;1.90;;
363;SDS011;173;48.718;9.274;2022-07-06T22:49:35;2.10;;;1.50;;
363;SDS011;173;48.718;9.274;2022-07-06T22:52:07;2.00;;;1.70;;
363;SDS011;173;48.718;9.274;2022-07-06T22:58:28;1.65;;;1.55;;
363;SDS011;173;48.718;9.274;2022-07-06T23:01:03;2.15;;;1.50;;
363;SDS011;173;48.718;9.274;2022-07-06T23:03:36;1.80;;;1.60;;
363;SDS011;173;48.718;9.274;2022-07-06T23:06:11;2.20;;;1.85;;
363;SDS011;173;48.718;9.274;2022-07-06T23:08:53;1.50;;;1.40;;
363;SDS011;173;48.718;9.274;2022-07-06T23:11:26;2.90;;;1.70;;
363;SDS011;173;48.718;9.274;2022-07-06T23:13:59;1.80;;;1.60;;
363;SDS011;173;48.718;9.274;2022-07-06T23:16:31;1.40;;;1.30;;
363;SDS011;173;48.718;9.274;2022-07-06T23:21:23;2.90;;;2.20;;
363;SDS011;173;48.718;9.274;2022-07-06T23:23:55;2.60;;;1.60;;
363;SDS011;173;48.718;9.274;2022-07-06T23:26:27;2.85;;;1.80;;
363;SDS011;173;48.718;9.274;2022-07-06T23:28:59;2.40;;;1.60;;
363;SDS011;173;48.718;9.274;2022-07-06T23:31:31;1.60;;;1.50;;
363;SDS011;173;48.718;9.274;2022-07-06T23:34:03;3.15;;;2.75;;
363;SDS011;173;48.718;9.274;2022-07-06T23:36:35;2.50;;;2.30;;
363;SDS011;173;48.718;9.274;2022-07-06T23:39:07;2.10;;;1.90;;
363;SDS011;173;48.718;9.274;2022-07-06T23:41:39;2.20;;;1.70;;
363;SDS011;173;48.718;9.274;2022-07-06T23:44:11;2.40;;;1.90;;
363;SDS011;173;48.718;9.274;2022-07-06T23:46:43;2.00;;;1.90;;
363;SDS011;173;48.718;9.274;2022-07-06T23:49:16;2.70;;;2.50;;
363;SDS011;173;48.718;9.274;2022-07-06T23:51:48;1.70;;;1.60;;
363;SDS011;173;48.718;9.274;2022-07-06T23:54:20;1.50;;;1.40;;
363;SDS011;173;48.718;9.274;2022-07-06T23:56:52;3.60;;;1.90;;
363;SDS011;173;48.718;9.274;2022-07-06T23:59:24;2.00;;;1.70;;
